^^
Meteo Knjazevac Station Historical Data
 
Daily Summary for July 05, 2022 Units:  Metric    English   Both
Daily Weekly Monthly Yearly Custom
  Current: High: Low: Average:
Temperature: 33.2 °C 33.2 °C 18.1 °C 23.1 °C
Dew Point: 21.4 °C 21.8 °C 17.8 °C 19.2 °C
Humidity: 50% 99% 50% 82%
Wind Speed: 1.6km/h 8km/h 0km/h 2.6km/h
Wind Gust: 9.7km/h 14.5km/h - -
WindNNE - - SW
Pressure: 1015.8 hPa 1017.8 hPa 1015.8 hPa -
Precipitation: 0 mm      
Historical Graphs
 
 
Tabular Data for July 05, 2022
Time Temperature Dew Point Pressure Wind Wind Speed Wind Gust Humidity Rainfall Rate (Hourly) solar Conditions
00:00 22.2 °C 20.1 °C 1017.2 hPa Calm   3.2 km/h 88% 0 mm 0 W/m2
00:10 21.9 °C 19.8 °C 1017.2 hPa WNW 3.2 km/h 4.8 km/h 88% 0 mm 0 W/m2
00:20 21.7 °C 19.8 °C 1017.2 hPa Calm   3.2 km/h 89% 0 mm 0 W/m2
00:30 21.4 °C 19.5 °C 1017.5 hPa WSW 3.2 km/h 4.8 km/h 89% 0 mm 0 W/m2
01:00 21 °C 19.3 °C 1017.5 hPa Calm     90% 0 mm 0 W/m2
01:10 20.9 °C 19.2 °C 1017.5 hPa Calm     90% 0 mm 0 W/m2
01:20 20.8 °C 19.1 °C 1017.5 hPa Calm   1.6 km/h 90% 0 mm 0 W/m2
01:30 20.8 °C 19.3 °C 1017.8 hPa Calm   3.2 km/h 91% 0 mm 0 W/m2
02:00 20.4 °C 18.9 °C 1017.5 hPa West 1.6 km/h 4.8 km/h 91% 0 mm 0 W/m2
02:10 20.2 °C 19.1 °C 1017.8 hPa West 1.6 km/h 4.8 km/h 93% 0 mm 0 W/m2
02:20 20.2 °C 19.1 °C 1017.5 hPa WNW 1.6 km/h 3.2 km/h 93% 0 mm 0 W/m2
02:30 20.1 °C 18.9 °C 1017.8 hPa Calm   3.2 km/h 93% 0 mm 0 W/m2
02:40 20 °C 18.8 °C 1017.5 hPa Calm   1.6 km/h 93% 0 mm 0 W/m2
02:50 19.8 °C 18.6 °C 1017.5 hPa West 1.6 km/h 4.8 km/h 93% 0 mm 0 W/m2
03:00 19.7 °C 18.7 °C 1017.5 hPa NW 1.6 km/h 4.8 km/h 94% 0 mm 0 W/m2
03:10 19.5 °C 18.5 °C 1017.5 hPa West 3.2 km/h 6.4 km/h 94% 0 mm 0 W/m2
03:20 19.3 °C 18.3 °C 1017.5 hPa WSW 3.2 km/h 4.8 km/h 94% 0 mm 0 W/m2
03:30 19.1 °C 18.1 °C 1017.5 hPa SW 3.2 km/h 4.8 km/h 94% 0 mm 0 W/m2
03:40 19.1 °C 18.3 °C 1017.5 hPa WSW 3.2 km/h 6.4 km/h 95% 0 mm 0 W/m2
03:50 18.9 °C 18.2 °C 1017.5 hPa West 3.2 km/h 8 km/h 96% 0 mm 0 W/m2
04:00 18.9 °C 18.2 °C 1017.5 hPa WNW 1.6 km/h 4.8 km/h 96% 0 mm 0 W/m2
04:10 18.9 °C 18.2 °C 1017.5 hPa West 3.2 km/h 6.4 km/h 96% 0 mm 0 W/m2
04:20 18.8 °C 18.2 °C 1017.5 hPa Calm   6.4 km/h 96% 0 mm 0 W/m2
04:30 18.8 °C 18.2 °C 1017.8 hPa WSW 3.2 km/h 3.2 km/h 96% 0 mm 0 W/m2
04:50 18.5 °C 17.8 °C 1017.8 hPa West 3.2 km/h 6.4 km/h 96% 0 mm 0 W/m2
05:00 18.4 °C 17.8 °C 1017.5 hPa West 3.2 km/h 4.8 km/h 96% 0 mm 5 W/m2
05:10 18.3 °C 18 °C 1017.8 hPa West 3.2 km/h 6.4 km/h 98% 0 mm 10 W/m2
05:20 18.2 °C 17.9 °C 1017.8 hPa West 4.8 km/h 9.7 km/h 98% 0 mm 16 W/m2
05:50 18.1 °C 17.8 °C 1017.8 hPa WSW 1.6 km/h 6.4 km/h 98% 0.51 mm 47 W/m2
06:00 18.1 °C 17.8 °C 1017.8 hPa WSW 3.2 km/h 4.8 km/h 98% 0 mm 57 W/m2
06:10 18.1 °C 17.8 °C 1017.8 hPa West 3.2 km/h 4.8 km/h 98% 0 mm 89 W/m2
06:20 18.2 °C 18.1 °C 1017.8 hPa West 1.6 km/h 6.4 km/h 99% 0 mm 110 W/m2
07:10 18.9 °C 18.6 °C 1017.8 hPa West 3.4 km/h 8 km/h 98.4% 0 mm 233 W/m2
07:30 20.1 °C 19.4 °C 1017.8 hPa NW 1.6 km/h 4.8 km/h 96% 0 mm 304 W/m2
07:40 20.5 °C 19.7 °C 1017.8 hPa NW 1.6 km/h 4.8 km/h 95% 0 mm 335 W/m2
08:10 21.8 °C 19 °C 1017.8 hPa SSW 1.6 km/h 4.8 km/h 84% 0 mm 433 W/m2
08:20 22.5 °C 19.1 °C 1017.8 hPa SSE 8 km/h 12.9 km/h 81% 0 mm 470 W/m2
08:30 23.7 °C 18.4 °C 1017.8 hPa SE 4.8 km/h 12.9 km/h 72% 0 mm 504 W/m2
08:40 24.6 °C 18.6 °C 1017.8 hPa SE 8 km/h 14.5 km/h 69% 0 mm 534 W/m2
08:50 25.4 °C 18.8 °C 1017.8 hPa SE 8 km/h 14.5 km/h 67% 0 mm 562 W/m2
09:00 26.1 °C 19.5 °C 1017.5 hPa ESE 4.8 km/h 12.9 km/h 67% 0 mm 595 W/m2
09:10 26.9 °C 19.3 °C 1017.5 hPa SE 4.8 km/h 11.3 km/h 63% 0 mm 630 W/m2
09:20 27.5 °C 19.1 °C 1017.2 hPa ESE 3.2 km/h 12.9 km/h 60% 0 mm 660 W/m2
09:30 27.9 °C 19.2 °C 1017.2 hPa SE 4.8 km/h 9.7 km/h 59% 0 mm 686 W/m2
09:50 28.9 °C 20.1 °C 1017.2 hPa Calm   8 km/h 59% 0 mm 744 W/m2
10:10 29.8 °C 20.9 °C 1017.2 hPa Calm   6.4 km/h 59% 0 mm 786 W/m2
10:20 30.2 °C 21 °C 1016.8 hPa West 1.6 km/h 8 km/h 58% 0 mm 813 W/m2
10:30 30.6 °C 21.1 °C 1016.8 hPa WSW 3.2 km/h 6.4 km/h 57% 0 mm 828 W/m2
10:40 30.8 °C 20.7 °C 1016.8 hPa WSW 3.2 km/h 8 km/h 55% 0 mm 837 W/m2
10:50 31.3 °C 21.2 °C 1016.8 hPa NNW 3.2 km/h 8 km/h 55% 0 mm 438 W/m2
11:00 31.7 °C 21.6 °C 1016.8 hPa North 1.6 km/h 8 km/h 55% 0 mm 894 W/m2
11:20 32.3 °C 21.8 °C 1016.5 hPa NNE 1.6 km/h 8 km/h 54% 0 mm 277 W/m2
11:30 32.6 °C 21.4 °C 1016.5 hPa WSW 3.2 km/h 9.7 km/h 52% 0 mm 926 W/m2
11:40 32.8 °C 21.7 °C 1016.1 hPa NW 3.2 km/h 9.7 km/h 52% 0 mm 942 W/m2
11:50 32.9 °C 21.1 °C 1016.1 hPa West 4.8 km/h 11.3 km/h 50% 0 mm 959 W/m2
12:00 33.2 °C 21.4 °C 1015.8 hPa NNE 1.6 km/h 9.7 km/h 50% 0 mm 965 W/m2
Knjazevac, Serbia
Compliments of Weather Underground - 2 mb